Assinippi, Massachusetts
Current Conditions -  °F | °C
As of 3:52 AM on Monday 24 Nov 2014 (Local Time) from KPYM Reporting Station
Overcast Overcast  
Wind Chill: 53°   Ceiling: 3300
Heat Index: 53°   Visibility: 10mi
Dew Point: 52°   Wind: 5mph
Humidity: 96%   Direction: NA
Pressure: 30.01"   Gusts: NA
Location:  42.1315°N, 70.8467°W
Report Text: KPYM 240852Z AUTO VRB04KT 10SM BKN033 BKN041 OVC048 12/11 A3001 RMK AO2 SLP163 T01170111 58026
Loading
Personal Weather Stations






























Interactive Weather Map New forecast layout! Learn more

10-Day Weather Forecast

Advertisements
Track Severe Weather on mobile